Time;durP1;ratioP1;P1;durP2;ratioP2;P2;SDS_P1;SDS_P2;PMS_P1;PMS_P2;Temp;Humidity;BMP_temperature;BMP_pressure;BME280_temperature;BME280_humidity;BME280_pressure;Samples;Min_cycle;Max_cycle;Signal;HPM_P1;HPM_P2
2021/07/08 00:00:49;;;;;;;1.87;1.77;;;18.10;99.90;;;;;;5112728;28;20579;-60
2021/07/08 00:03:16;;;;;;;2.13;2.03;;;18.10;99.90;;;;;;5115851;28;20432;-61
2021/07/08 00:05:44;;;;;;;2.10;2.00;;;18.10;99.90;;;;;;5111601;28;20474;-60
2021/07/08 00:08:12;;;;;;;7.30;2.23;;;18.10;99.90;;;;;;5105798;28;20457;-62
2021/07/08 00:10:48;;;;;;;2.37;2.27;;;18.10;99.90;;;;;;5101762;28;20526;-61
2021/07/08 00:13:16;;;;;;;4.00;2.37;;;18.00;99.90;;;;;;5101560;28;20467;-61
2021/07/08 00:15:44;;;;;;;2.10;2.00;;;18.00;99.90;;;;;;5100898;28;20704;-60
2021/07/08 00:18:12;;;;;;;2.90;2.57;;;18.00;99.90;;;;;;5101176;28;20446;-62
2021/07/08 00:20:41;;;;;;;4.30;3.80;;;18.00;99.90;;;;;;5100473;28;20466;-61
2021/07/08 00:23:08;;;;;;;10.57;9.67;;;18.10;99.90;;;;;;5101242;28;20484;-60
2021/07/08 00:25:36;;;;;;;6.27;5.87;;;18.00;99.90;;;;;;5101122;28;20421;-60
2021/07/08 00:28:07;;;;;;;3.60;3.30;;;18.10;99.90;;;;;;5101128;28;20421;-60
2021/07/08 00:30:34;;;;;;;4.43;2.70;;;18.10;99.90;;;;;;5100216;28;20424;-61
2021/07/08 00:33:01;;;;;;;3.07;2.70;;;18.10;99.90;;;;;;5100801;28;20463;-62
2021/07/08 00:35:28;;;;;;;3.23;2.93;;;18.00;99.90;;;;;;5100317;28;20492;-61
2021/07/08 00:37:55;;;;;;;2.60;2.40;;;18.00;99.90;;;;;;5100259;28;20646;-61
2021/07/08 00:40:23;;;;;;;2.17;2.07;;;18.00;99.90;;;;;;5100576;28;20424;-62
2021/07/08 00:42:51;;;;;;;3.23;3.03;;;18.10;99.90;;;;;;5100391;28;20410;-60
2021/07/08 00:45:21;;;;;;;2.90;2.70;;;18.00;99.90;;;;;;5110884;28;20451;-61
2021/07/08 00:47:50;;;;;;;2.90;2.70;;;18.00;99.90;;;;;;5103138;28;20738;-61
2021/07/08 00:50:26;;;;;;;4.90;2.70;;;17.90;99.90;;;;;;5109991;28;20412;-61
2021/07/08 00:52:54;;;;;;;3.23;2.83;;;17.80;99.90;;;;;;5119020;28;20534;-61
2021/07/08 00:55:21;;;;;;;3.10;2.87;;;17.90;99.90;;;;;;5110814;28;20611;-61
2021/07/08 00:57:55;;;;;;;4.33;2.93;;;17.80;99.90;;;;;;5113833;28;20456;-61
2021/07/08 01:00:26;;;;;;;3.27;3.07;;;17.90;99.90;;;;;;5100912;28;20509;-61
2021/07/08 01:02:54;;;;;;;2.33;2.17;;;18.10;99.90;;;;;;5099708;28;20522;-61
2021/07/08 01:05:24;;;;;;;2.47;2.37;;;18.30;99.90;;;;;;5099866;28;20408;-61
2021/07/08 01:07:53;;;;;;;2.53;2.33;;;18.50;99.90;;;;;;5098783;28;20444;-60
2021/07/08 01:10:20;;;;;;;2.40;2.20;;;18.70;99.90;;;;;;5095630;28;20477;-60
2021/07/08 01:12:48;;;;;;;3.33;3.13;;;18.70;99.90;;;;;;5099898;28;20440;-60
2021/07/08 01:15:16;;;;;;;4.00;2.47;;;18.70;99.90;;;;;;5098428;28;21040;-60
2021/07/08 01:17:44;;;;;;;2.40;2.20;;;18.80;99.90;;;;;;5107043;28;20448;-60
2021/07/08 01:20:14;;;;;;;2.37;2.13;;;18.80;99.90;;;;;;5106060;28;20431;-60
2021/07/08 01:22:41;;;;;;;2.53;2.27;;;18.80;99.90;;;;;;5091836;28;20456;-60
2021/07/08 01:25:11;;;;;;;2.93;2.13;;;18.80;99.90;;;;;;5106878;28;20449;-62
2021/07/08 01:27:38;;;;;;;2.70;2.50;;;18.80;99.90;;;;;;5117744;28;20457;-61
2021/07/08 01:30:08;;;;;;;2.43;2.23;;;18.90;99.90;;;;;;5108183;28;20482;-61
2021/07/08 01:32:36;;;;;;;3.97;2.50;;;18.80;99.90;;;;;;5116535;28;20492;-60
2021/07/08 01:35:07;;;;;;;2.50;2.40;;;18.70;99.90;;;;;;5120275;28;20484;-60
2021/07/08 01:37:34;;;;;;;2.17;2.07;;;18.50;99.90;;;;;;5084421;28;20437;-61
2021/07/08 01:40:01;;;;;;;2.27;2.07;;;18.60;99.90;;;;;;5098660;28;20420;-60
2021/07/08 01:42:29;;;;;;;2.63;2.43;;;18.60;99.90;;;;;;5098733;28;20483;-60
2021/07/08 01:44:56;;;;;;;2.40;2.30;;;18.80;99.90;;;;;;5094249;28;20419;-60
2021/07/08 01:47:24;;;;;;;3.07;2.80;;;19.00;99.90;;;;;;5098282;28;20454;-61
2021/07/08 01:49:52;;;;;;;2.17;2.07;;;19.20;99.90;;;;;;5098245;28;20772;-61
2021/07/08 01:52:19;;;;;;;9.33;4.20;;;19.10;99.90;;;;;;5099135;28;20454;-60
2021/07/08 01:54:46;;;;;;;2.90;2.70;;;18.90;99.90;;;;;;5098489;28;20450;-61
2021/07/08 01:57:13;;;;;;;2.70;2.50;;;18.80;99.90;;;;;;5098741;28;20457;-60
2021/07/08 01:59:40;;;;;;;3.40;2.80;;;18.60;99.90;;;;;;5099028;28;20482;-60
2021/07/08 02:02:07;;;;;;;2.77;2.60;;;18.50;99.90;;;;;;5099207;28;20966;-60
2021/07/08 02:04:34;;;;;;;3.33;3.03;;;18.20;99.90;;;;;;5099315;28;20910;-60
2021/07/08 02:07:01;;;;;;;3.03;2.83;;;18.10;99.90;;;;;;5099452;28;20469;-61
2021/07/08 02:09:30;;;;;;;2.63;2.43;;;18.00;99.90;;;;;;5097770;28;20707;-61
2021/07/08 02:12:01;;;;;;;2.67;2.47;;;18.10;99.90;;;;;;5098796;28;20815;-62
2021/07/08 02:14:29;;;;;;;3.00;2.80;;;18.10;99.90;;;;;;5097401;28;20429;-61
2021/07/08 02:16:56;;;;;;;2.90;2.67;;;18.30;99.90;;;;;;5097728;28;20419;-61
2021/07/08 02:19:24;;;;;;;4.70;2.67;;;18.40;99.90;;;;;;5098117;28;20448;-60
2021/07/08 02:21:51;;;;;;;2.30;2.20;;;18.40;99.90;;;;;;5098653;28;20498;-60
2021/07/08 02:24:18;;;;;;;3.50;3.13;;;18.30;99.90;;;;;;5098198;28;20623;-60
2021/07/08 02:26:45;;;;;;;4.10;3.23;;;18.20;99.90;;;;;;5080468;28;20742;-60
2021/07/08 02:29:13;;;;;;;2.40;2.30;;;18.20;99.90;;;;;;5097130;28;20487;-60
2021/07/08 02:31:41;;;;;;;2.53;2.40;;;18.20;99.90;;;;;;5081015;28;20420;-60
2021/07/08 02:34:08;;;;;;;3.23;2.90;;;18.10;99.90;;;;;;5098639;28;20464;-61
2021/07/08 02:36:35;;;;;;;2.73;2.40;;;18.00;99.90;;;;;;5098108;28;20622;-60
2021/07/08 02:39:05;;;;;;;2.27;2.17;;;18.10;99.90;;;;;;5084362;28;20466;-60
2021/07/08 02:41:32;;;;;;;3.40;3.10;;;18.30;99.90;;;;;;5078325;28;20420;-60
2021/07/08 02:43:59;;;;;;;3.37;3.07;;;18.40;99.90;;;;;;5085887;28;20441;-60
2021/07/08 02:46:26;;;;;;;3.00;2.70;;;18.50;99.90;;;;;;5097536;28;20416;-62
2021/07/08 02:48:53;;;;;;;3.50;3.23;;;18.70;99.90;;;;;;5096525;28;20621;-61
2021/07/08 02:51:20;;;;;;;2.60;2.40;;;18.80;99.90;;;;;;5096591;28;20446;-60
2021/07/08 02:53:47;;;;;;;3.00;2.80;;;18.80;99.90;;;;;;5097659;28;20528;-60
2021/07/08 02:56:15;;;;;;;2.97;2.67;;;18.80;99.90;;;;;;5096822;28;20415;-61
2021/07/08 02:58:42;;;;;;;3.93;3.40;;;18.80;99.90;;;;;;5098807;28;20423;-61
2021/07/08 03:01:09;;;;;;;4.50;3.23;;;18.90;99.90;;;;;;5097856;28;20692;-60
2021/07/08 03:03:36;;;;;;;4.00;3.17;;;18.70;99.90;;;;;;5098257;28;20534;-60
2021/07/08 03:06:03;;;;;;;3.87;3.37;;;18.40;99.90;;;;;;5097174;28;20466;-60
2021/07/08 03:08:30;;;;;;;3.30;3.00;;;18.10;99.90;;;;;;5093083;28;20441;-60
2021/07/08 03:10:58;;;;;;;3.20;3.00;;;18.00;99.90;;;;;;5098233;28;20497;-60
2021/07/08 03:13:25;;;;;;;3.43;3.13;;;17.90;99.90;;;;;;5097954;28;20477;-60
2021/07/08 03:15:52;;;;;;;3.53;2.90;;;17.70;99.90;;;;;;5098077;28;20450;-61
2021/07/08 03:18:19;;;;;;;4.00;3.60;;;17.70;99.90;;;;;;5096449;28;20426;-61
2021/07/08 03:20:47;;;;;;;2.83;2.63;;;17.70;99.90;;;;;;5097476;28;20424;-61
2021/07/08 03:23:15;;;;;;;2.90;2.70;;;17.70;99.90;;;;;;5096957;28;20504;-61
2021/07/08 03:25:42;;;;;;;3.50;3.20;;;17.50;99.90;;;;;;5090403;28;20419;-59
2021/07/08 03:28:09;;;;;;;3.80;3.47;;;17.50;99.90;;;;;;5091538;28;20422;-62
2021/07/08 03:30:36;;;;;;;5.33;3.03;;;17.60;99.90;;;;;;5091242;28;20442;-61
2021/07/08 03:33:04;;;;;;;3.80;3.23;;;17.80;99.90;;;;;;5089020;28;20488;-62
2021/07/08 03:35:33;;;;;;;4.30;3.40;;;18.00;99.90;;;;;;5096347;28;20449;-61
2021/07/08 03:38:01;;;;;;;3.37;3.17;;;18.00;99.90;;;;;;5097716;28;20700;-61
2021/07/08 03:40:28;;;;;;;3.70;3.40;;;18.20;99.90;;;;;;5097153;28;20431;-61
2021/07/08 03:42:56;;;;;;;3.47;3.17;;;18.10;99.90;;;;;;5097090;28;20454;-60
2021/07/08 03:45:23;;;;;;;4.27;3.87;;;17.90;99.90;;;;;;5096319;28;20768;-62
2021/07/08 03:47:51;;;;;;;4.43;4.13;;;17.70;99.90;;;;;;5097343;28;20420;-61
2021/07/08 03:50:19;;;;;;;3.93;3.63;;;17.80;99.90;;;;;;5097434;28;20460;-60
2021/07/08 03:52:46;;;;;;;5.17;3.90;;;17.90;99.90;;;;;;5091532;28;20694;-61
2021/07/08 03:55:17;;;;;;;4.00;3.70;;;18.20;99.90;;;;;;5088792;28;20504;-61
2021/07/08 03:57:54;;;;;;;3.87;3.57;;;18.20;99.90;;;;;;5111144;28;20414;-61
2021/07/08 04:00:37;;;;;;;4.40;3.70;;;18.30;99.90;;;;;;5085418;28;21000;-61
2021/07/08 04:03:13;;;;;;;3.83;3.63;;;18.20;99.90;;;;;;5083429;28;20420;-60
2021/07/08 04:05:42;;;;;;;4.37;3.97;;;18.00;99.90;;;;;;5097721;28;20503;-61
2021/07/08 04:08:09;;;;;;;3.53;3.30;;;18.10;99.90;;;;;;5096424;28;20527;-61
2021/07/08 04:10:38;;;;;;;5.20;4.50;;;18.30;99.90;;;;;;5097195;28;20705;-61
2021/07/08 04:13:10;;;;;;;4.10;3.70;;;18.10;99.90;;;;;;5096552;28;20478;-60
2021/07/08 04:15:38;;;;;;;3.77;3.47;;;18.20;99.90;;;;;;5097612;28;20762;-60
2021/07/08 04:18:06;;;;;;;4.50;4.13;;;18.20;99.90;;;;;;5096688;28;20428;-62
2021/07/08 04:20:33;;;;;;;4.90;4.50;;;18.20;99.90;;;;;;5096775;28;20836;-62
2021/07/08 04:23:01;;;;;;;4.37;4.07;;;18.20;99.90;;;;;;5096359;28;20771;-61
2021/07/08 04:25:28;;;;;;;5.20;4.80;;;18.20;99.90;;;;;;5085212;28;20428;-60
2021/07/08 04:27:55;;;;;;;6.23;5.07;;;18.10;99.90;;;;;;5096811;28;20445;-61
2021/07/08 04:30:23;;;;;;;5.93;5.37;;;18.20;99.90;;;;;;5094604;28;20415;-61
2021/07/08 04:32:51;;;;;;;5.93;5.43;;;18.20;99.90;;;;;;5096884;28;20546;-60
2021/07/08 04:35:30;;;;;;;7.00;6.40;;;18.20;99.90;;;;;;5095672;28;20472;-60
2021/07/08 04:37:58;;;;;;;7.33;6.60;;;18.00;99.90;;;;;;5095802;28;20755;-61
2021/07/08 04:40:26;;;;;;;7.07;6.40;;;18.00;99.90;;;;;;5096074;28;20442;-60
2021/07/08 04:42:53;;;;;;;7.27;6.60;;;18.00;99.90;;;;;;5097550;28;20423;-60
2021/07/08 04:45:20;;;;;;;7.70;6.43;;;18.10;99.90;;;;;;5081128;28;20421;-60
2021/07/08 04:47:49;;;;;;;7.67;6.90;;;18.10;99.90;;;;;;5099641;28;20420;-61
2021/07/08 04:50:20;;;;;;;7.77;6.07;;;18.10;99.90;;;;;;5086719;28;20468;-60
2021/07/08 04:52:48;;;;;;;7.80;6.83;;;18.20;99.90;;;;;;5103406;28;20485;-61
2021/07/08 04:55:18;;;;;;;9.87;6.00;;;18.20;99.90;;;;;;5099764;28;20425;-60
2021/07/08 04:57:45;;;;;;;8.73;7.80;;;18.20;99.90;;;;;;5081040;28;20436;-62
2021/07/08 05:00:15;;;;;;;7.40;6.67;;;18.10;99.90;;;;;;5099469;28;20445;-61
2021/07/08 05:02:43;;;;;;;7.47;6.77;;;18.10;99.90;;;;;;5098421;28;20442;-61
2021/07/08 05:05:12;;;;;;;8.40;7.37;;;18.20;99.90;;;;;;5099004;28;20427;-61
2021/07/08 05:07:40;;;;;;;12.60;8.10;;;18.20;99.90;;;;;;5097996;28;20472;-62
2021/07/08 05:10:10;;;;;;;11.83;6.37;;;18.40;99.90;;;;;;5099174;28;20574;-62
2021/07/08 05:12:37;;;;;;;6.00;5.40;;;18.40;99.90;;;;;;5098668;28;20774;-61
2021/07/08 05:15:10;;;;;;;10.10;7.30;;;18.40;99.90;;;;;;5099379;28;20458;-61
2021/07/08 05:17:37;;;;;;;7.77;6.33;;;18.50;99.90;;;;;;5098914;28;20600;-60
2021/07/08 05:20:06;;;;;;;7.90;7.20;;;18.70;99.90;;;;;;5100044;28;20450;-60
2021/07/08 05:22:34;;;;;;;11.93;7.03;;;18.90;99.90;;;;;;5099924;28;20796;-60
2021/07/08 05:25:01;;;;;;;7.80;6.03;;;19.10;99.90;;;;;;5099399;28;20421;-60
2021/07/08 05:27:31;;;;;;;6.30;5.67;;;19.30;99.90;;;;;;5099338;28;20453;-60
2021/07/08 05:29:59;;;;;;;8.30;7.53;;;19.50;99.90;;;;;;5098279;28;20442;-60
2021/07/08 05:32:28;;;;;;;11.47;9.03;;;19.80;99.90;;;;;;5098028;28;20406;-60
2021/07/08 05:34:55;;;;;;;8.57;7.37;;;19.90;99.90;;;;;;5098745;28;20468;-60
2021/07/08 05:37:23;;;;;;;8.47;7.30;;;19.90;99.90;;;;;;5099589;28;20728;-61
2021/07/08 05:39:50;;;;;;;7.83;7.13;;;19.70;99.90;;;;;;5094035;28;20450;-60
2021/07/08 05:42:17;;;;;;;7.37;6.77;;;19.80;99.90;;;;;;5099220;28;20908;-60
2021/07/08 05:44:44;;;;;;;9.07;7.10;;;20.00;99.90;;;;;;5094401;28;20496;-60
2021/07/08 05:47:12;;;;;;;8.80;7.17;;;20.00;99.90;;;;;;5102534;28;20432;-61
2021/07/08 05:49:55;;;;;;;8.17;7.30;;;20.30;99.90;;;;;;5077637;28;20496;-60
2021/07/08 05:52:23;;;;;;;8.47;6.23;;;20.80;99.90;;;;;;5098408;28;20425;-59
2021/07/08 05:54:50;;;;;;;7.60;7.00;;;21.10;99.90;;;;;;5098172;28;20443;-62
2021/07/08 05:57:17;;;;;;;9.07;8.10;;;21.00;99.90;;;;;;5107305;28;20439;-59
2021/07/08 05:59:44;;;;;;;10.07;7.23;;;21.20;99.90;;;;;;5106767;28;20446;-60
2021/07/08 06:02:11;;;;;;;8.87;7.97;;;21.10;99.90;;;;;;5098759;28;20417;-61
2021/07/08 06:04:39;;;;;;;9.27;8.47;;;21.10;99.90;;;;;;5097484;28;20454;-61
2021/07/08 06:07:06;;;;;;;7.07;6.20;;;20.90;99.90;;;;;;5098771;28;20468;-61
2021/07/08 06:09:34;;;;;;;8.33;7.43;;;20.90;99.90;;;;;;5101945;28;20692;-62
2021/07/08 06:12:01;;;;;;;6.90;6.17;;;21.00;99.90;;;;;;5098944;28;20417;-61
2021/07/08 06:14:28;;;;;;;8.87;8.17;;;21.30;99.90;;;;;;5097700;28;20486;-61
2021/07/08 06:16:56;;;;;;;8.33;7.53;;;21.60;99.90;;;;;;5093734;28;20448;-61
2021/07/08 06:19:23;;;;;;;11.47;8.37;;;21.60;99.90;;;;;;5097753;28;20417;-61
2021/07/08 06:21:51;;;;;;;7.33;6.60;;;21.40;99.90;;;;;;5098771;28;20486;-61
2021/07/08 06:24:18;;;;;;;7.93;7.23;;;21.00;99.90;;;;;;5097905;28;20651;-61
2021/07/08 06:26:46;;;;;;;12.40;8.10;;;20.90;99.90;;;;;;5100381;28;20465;-60
2021/07/08 06:29:13;;;;;;;10.20;8.77;;;20.60;99.90;;;;;;5099750;28;20470;-60
2021/07/08 06:31:41;;;;;;;10.60;7.70;;;20.10;99.90;;;;;;5098011;28;20419;-60
2021/07/08 06:34:09;;;;;;;9.27;8.30;;;20.10;99.90;;;;;;5093563;28;20558;-61
2021/07/08 06:36:36;;;;;;;11.83;10.83;;;20.30;99.90;;;;;;5097102;28;20431;-61
2021/07/08 06:39:04;;;;;;;10.70;9.37;;;20.40;99.90;;;;;;5097886;28;20476;-61
2021/07/08 06:41:32;;;;;;;9.17;8.27;;;20.30;99.90;;;;;;5095263;28;20465;-60
2021/07/08 06:44:00;;;;;;;9.60;8.80;;;20.70;99.90;;;;;;5097768;28;20457;-60
2021/07/08 06:46:29;;;;;;;8.80;7.93;;;21.30;99.90;;;;;;5097339;28;20443;-61
2021/07/08 06:48:57;;;;;;;9.83;8.83;;;21.30;99.90;;;;;;5097143;28;20440;-62
2021/07/08 06:51:25;;;;;;;10.27;9.17;;;21.20;99.90;;;;;;5096871;28;20478;-61
2021/07/08 06:53:55;;;;;;;10.07;8.60;;;21.20;99.90;;;;;;5081411;28;20680;-60
2021/07/08 06:56:24;;;;;;;13.20;9.10;;;21.10;99.90;;;;;;5096416;28;20509;-60
2021/07/08 06:58:51;;;;;;;9.90;9.00;;;21.10;99.90;;;;;;5099825;28;20436;-60
2021/07/08 07:01:21;;;;;;;10.97;10.00;;;21.30;99.90;;;;;;5095653;28;20762;-60
2021/07/08 07:03:51;;;;;;;9.47;8.57;;;21.70;99.90;;;;;;5099612;28;20500;-61
2021/07/08 07:06:19;;;;;;;14.60;9.10;;;22.00;99.90;;;;;;5097686;28;20484;-62
2021/07/08 07:08:47;;;;;;;13.77;12.43;;;22.00;99.90;;;;;;5103042;28;20634;-60
2021/07/08 07:11:14;;;;;;;9.53;8.60;;;22.20;99.90;;;;;;5105345;28;20490;-60
2021/07/08 07:13:42;;;;;;;9.70;8.80;;;22.40;99.90;;;;;;5100043;28;20832;-60
2021/07/08 07:16:09;;;;;;;11.03;9.93;;;22.50;99.90;;;;;;5098888;28;20507;-60
2021/07/08 07:18:40;;;;;;;10.47;9.40;;;23.20;99.90;;;;;;5099447;28;20436;-60
2021/07/08 07:21:11;;;;;;;11.43;10.27;;;23.90;99.90;;;;;;5100126;28;20660;-60
2021/07/08 07:23:42;;;;;;;10.93;9.63;;;24.00;99.90;;;;;;5097588;28;20439;-61
2021/07/08 07:26:16;;;;;;;12.00;9.20;;;24.10;99.90;;;;;;5103383;28;20579;-60
2021/07/08 07:28:47;;;;;;;11.23;10.30;;;23.80;99.90;;;;;;5078251;28;20423;-60
2021/07/08 07:31:15;;;;;;;11.60;10.50;;;23.60;99.90;;;;;;5097340;28;20443;-61
2021/07/08 07:33:44;;;;;;;10.17;9.20;;;23.40;99.90;;;;;;5097272;28;20683;-62
2021/07/08 07:36:12;;;;;;;16.83;12.60;;;23.10;99.90;;;;;;5092390;28;20446;-61
2021/07/08 07:38:40;;;;;;;11.63;10.37;;;22.40;99.90;;;;;;5097344;28;20453;-61
2021/07/08 07:41:08;;;;;;;15.00;9.97;;;22.10;99.90;;;;;;5085767;28;20487;-61
2021/07/08 07:43:35;;;;;;;10.63;9.10;;;22.00;99.90;;;;;;5094402;28;20456;-61
2021/07/08 07:46:02;;;;;;;11.77;10.67;;;21.70;99.90;;;;;;5096764;28;20456;-61
2021/07/08 07:48:30;;;;;;;11.97;10.77;;;21.50;99.90;;;;;;5096469;28;20445;-61
2021/07/08 07:50:57;;;;;;;10.87;9.97;;;21.50;99.90;;;;;;5096781;28;20411;-60
2021/07/08 07:53:24;;;;;;;10.63;9.63;;;21.20;99.90;;;;;;5096468;28;20457;-61
2021/07/08 07:55:51;;;;;;;10.23;9.23;;;21.10;99.90;;;;;;5095945;28;20795;-60
2021/07/08 07:58:19;;;;;;;11.57;8.80;;;21.10;99.90;;;;;;5096341;28;20838;-62
2021/07/08 08:00:47;;;;;;;10.43;9.27;;;21.50;99.90;;;;;;5096427;28;20555;-61
2021/07/08 08:03:15;;;;;;;9.27;8.57;;;21.20;99.90;;;;;;5096556;28;20423;-60
2021/07/08 08:05:54;;;;;;;10.43;9.33;;;21.50;99.90;;;;;;5097402;28;20439;-60
2021/07/08 08:08:27;;;;;;;11.03;10.10;;;21.80;99.90;;;;;;5085552;28;20453;-60
2021/07/08 08:10:57;;;;;;;11.00;9.20;;;21.80;99.90;;;;;;5095909;28;20621;-59
2021/07/08 08:13:27;;;;;;;9.77;8.77;;;21.90;99.90;;;;;;5093855;28;20493;-60
2021/07/08 08:15:54;;;;;;;9.20;8.30;;;22.30;99.90;;;;;;5095976;28;20717;-60
2021/07/08 08:18:22;;;;;;;13.10;9.97;;;22.30;99.90;;;;;;5097504;28;20478;-60
2021/07/08 08:20:50;;;;;;;9.57;8.67;;;22.20;99.90;;;;;;5100048;28;20414;-60
2021/07/08 08:23:18;;;;;;;9.60;8.70;;;22.10;99.90;;;;;;5099671;28;20677;-60
2021/07/08 08:25:45;;;;;;;12.93;9.37;;;21.90;99.90;;;;;;5100514;28;20505;-60
2021/07/08 08:28:12;;;;;;;9.07;8.23;;;22.00;99.90;;;;;;5100467;28;20452;-61
2021/07/08 08:30:40;;;;;;;9.23;8.43;;;22.10;99.90;;;;;;5100608;28;20467;-61
2021/07/08 08:33:07;;;;;;;9.47;8.67;;;22.50;99.90;;;;;;5099861;28;20439;-60
2021/07/08 08:35:35;;;;;;;11.07;9.73;;;22.80;99.90;;;;;;5100139;28;20423;-60
2021/07/08 08:38:04;;;;;;;10.53;9.73;;;22.80;99.90;;;;;;5099825;28;20508;-61
2021/07/08 08:40:34;;;;;;;9.53;8.70;;;22.50;99.90;;;;;;5088490;28;21009;-60
2021/07/08 08:43:03;;;;;;;9.73;8.50;;;22.40;99.90;;;;;;5099491;28;20448;-60
2021/07/08 08:45:32;;;;;;;9.40;8.60;;;22.40;99.90;;;;;;5100304;28;20437;-61
2021/07/08 08:48:02;;;;;;;11.93;9.83;;;22.50;99.90;;;;;;5100184;28;20416;-62
2021/07/08 08:50:39;;;;;;;9.07;8.30;;;22.50;99.90;;;;;;5100029;28;20449;-61
2021/07/08 08:53:09;;;;;;;13.53;9.83;;;22.70;99.90;;;;;;5100271;28;20600;-61
2021/07/08 08:55:37;;;;;;;9.70;8.80;;;23.20;99.90;;;;;;5105402;28;20496;-61
2021/07/08 08:58:07;;;;;;;10.10;9.20;;;23.30;99.90;;;;;;5100860;28;20412;-61
2021/07/08 09:00:45;;;;;;;8.97;8.13;;;23.10;99.90;;;;;;5100130;28;20608;-60
2021/07/08 09:03:26;;;;;;;10.27;9.37;;;23.00;99.90;;;;;;5100293;28;20516;-61
2021/07/08 09:06:21;;;;;;;9.70;8.80;;;22.90;99.90;;;;;;5094830;28;20548;-60
2021/07/08 09:08:50;;;;;;;11.40;8.70;;;23.00;99.90;;;;;;5098348;28;20453;-61
2021/07/08 09:11:24;;;;;;;12.50;8.67;;;23.20;99.90;;;;;;5099360;28;20471;-59
2021/07/08 09:14:03;;;;;;;10.60;9.70;;;23.80;99.90;;;;;;5099813;28;20463;-59
2021/07/08 09:16:39;;;;;;;8.87;8.20;;;24.40;99.90;;;;;;5099880;28;20444;-60
2021/07/08 09:19:17;;;;;;;14.40;9.20;;;24.70;99.90;;;;;;5091844;28;20452;-60
2021/07/08 09:21:59;;;;;;;7.60;7.10;;;25.00;99.90;;;;;;5100057;28;20405;-61
2021/07/08 09:24:34;;;;;;;8.87;8.13;;;25.30;99.90;;;;;;5093196;28;20435;-59
2021/07/08 09:27:10;;;;;;;9.00;8.30;;;25.40;99.90;;;;;;5102268;28;20439;-62
2021/07/08 09:29:45;;;;;;;9.50;8.70;;;25.10;99.90;;;;;;5097784;28;20446;-60
2021/07/08 09:32:14;;;;;;;10.53;9.53;;;24.90;99.90;;;;;;5105475;28;20455;-60
2021/07/08 09:34:46;;;;;;;9.83;9.03;;;24.90;99.90;;;;;;5101937;28;20491;-59
2021/07/08 09:37:16;;;;;;;9.13;8.30;;;25.10;99.90;;;;;;5105294;28;20471;-61
2021/07/08 09:39:48;;;;;;;10.30;9.60;;;25.30;99.90;;;;;;5101999;28;20435;-60
2021/07/08 09:42:35;;;;;;;9.47;8.60;;;25.40;99.90;;;;;;5102556;28;20435;-60
2021/07/08 09:45:14;;;;;;;9.17;8.47;;;25.60;99.90;;;;;;5100248;28;20457;-59
2021/07/08 09:47:42;;;;;;;9.60;8.90;;;25.80;99.90;;;;;;5101958;28;20435;-61
2021/07/08 09:50:12;;;;;;;10.23;9.33;;;25.50;99.90;;;;;;5099722;28;20463;-61
2021/07/08 09:52:41;;;;;;;10.23;9.37;;;25.60;99.90;;;;;;5099016;28;20450;-61
2021/07/08 09:55:19;;;;;;;9.43;8.63;;;25.40;99.90;;;;;;5098342;28;20507;-60
2021/07/08 09:57:48;;;;;;;9.33;8.43;;;25.40;99.90;;;;;;5098509;28;20453;-61
2021/07/08 10:00:19;;;;;;;9.53;8.73;;;25.70;99.90;;;;;;5107619;28;20446;-60
2021/07/08 10:02:47;;;;;;;10.03;9.13;;;26.20;99.90;;;;;;5097565;28;20446;-60
2021/07/08 10:05:15;;;;;;;9.00;8.30;;;27.00;99.90;;;;;;5097968;28;20664;-60
2021/07/08 10:07:45;;;;;;;11.13;10.17;;;27.20;99.90;;;;;;5105667;28;20633;-60
2021/07/08 10:10:15;;;;;;;10.70;9.13;;;27.60;99.90;;;;;;5097701;28;20559;-60
2021/07/08 10:12:46;;;;;;;10.40;9.60;;;27.80;99.90;;;;;;5098142;28;20499;-59
2021/07/08 10:15:16;;;;;;;9.93;9.20;;;27.40;99.90;;;;;;5097134;28;20477;-60
2021/07/08 10:17:43;;;;;;;10.53;8.93;;;26.70;99.90;;;;;;5097689;28;20443;-59
2021/07/08 10:20:14;;;;;;;9.97;9.27;;;26.60;99.90;;;;;;5098587;28;20439;-61
2021/07/08 10:22:42;;;;;;;10.43;9.07;;;26.50;99.90;;;;;;5097436;28;20467;-60
2021/07/08 10:25:12;;;;;;;10.23;9.43;;;26.70;99.90;;;;;;5096252;28;20455;-59
2021/07/08 10:27:43;;;;;;;9.20;8.57;;;26.80;99.90;;;;;;5098384;28;20459;-62
2021/07/08 10:30:12;;;;;;;8.23;7.73;;;27.20;99.90;;;;;;5097077;28;20504;-61
2021/07/08 10:32:40;;;;;;;10.67;9.67;;;27.40;99.90;;;;;;5097821;28;20645;-60
2021/07/08 10:35:08;;;;;;;8.70;8.20;;;26.60;99.90;;;;;;5097084;28;20470;-61
2021/07/08 10:37:40;;;;;;;9.93;9.13;;;26.10;99.90;;;;;;5091252;28;20523;-60
2021/07/08 10:40:30;;;;;;;9.33;8.57;;;25.40;99.90;;;;;;5093645;28;20438;-60
2021/07/08 10:43:12;;;;;;;10.87;9.27;;;25.50;99.90;;;;;;5089848;28;20439;-60
2021/07/08 10:45:44;;;;;;;9.17;8.37;;;25.50;99.90;;;;;;5096649;28;20506;-61
2021/07/08 10:48:19;;;;;;;8.20;7.57;;;25.30;99.90;;;;;;5097011;28;20850;-60
2021/07/08 10:50:50;;;;;;;9.53;7.30;;;25.40;99.90;;;;;;5097147;28;20435;-61
2021/07/08 10:53:26;;;;;;;9.10;8.40;;;25.60;99.90;;;;;;5097617;28;20481;-60
2021/07/08 10:56:00;;;;;;;8.60;7.90;;;25.90;99.90;;;;;;5097319;28;20483;-59
2021/07/08 10:58:51;;;;;;;8.07;7.33;;;25.60;99.90;;;;;;5097740;28;20443;-61
2021/07/08 11:01:21;;;;;;;8.60;8.07;;;25.50;99.90;;;;;;5096753;28;20494;-60
2021/07/08 11:03:58;;;;;;;9.27;8.57;;;25.00;99.90;;;;;;5097139;28;20450;-60
2021/07/08 11:06:33;;;;;;;8.73;8.13;;;25.40;99.90;;;;;;5096338;28;20482;-59
2021/07/08 11:09:17;;;;;;;9.87;8.60;;;25.70;99.90;;;;;;5097482;28;20494;-60
2021/07/08 11:11:48;;;;;;;8.53;7.93;;;25.90;99.90;;;;;;5057138;28;20449;-61
2021/07/08 11:14:23;;;;;;;8.87;8.27;;;26.00;99.90;;;;;;5056164;28;20512;-60
2021/07/08 11:16:53;;;;;;;8.57;8.03;;;26.30;99.90;;;;;;5057092;28;20468;-61
2021/07/08 11:19:21;;;;;;;9.10;8.50;;;26.40;99.90;;;;;;5056342;28;20441;-60
2021/07/08 11:21:52;;;;;;;8.57;7.97;;;26.30;99.90;;;;;;5056111;28;20456;-60
2021/07/08 11:24:20;;;;;;;8.70;8.10;;;26.20;99.90;;;;;;5055894;28;20502;-62
2021/07/08 11:27:00;;;;;;;8.23;7.53;;;25.60;99.90;;;;;;5057277;28;20476;-60
2021/07/08 11:29:39;;;;;;;9.20;8.50;;;25.50;99.90;;;;;;5057588;28;20872;-60
2021/07/08 11:32:25;;;;;;;10.40;9.60;;;25.40;99.90;;;;;;5050139;28;20524;-62
2021/07/08 11:35:08;;;;;;;8.93;8.33;;;25.00;99.90;;;;;;5056246;28;20480;-61
2021/07/08 11:40:07;;;;;;;9.57;8.87;;;26.20;99.90;;;;;;5054043;28;20452;-59
2021/07/08 11:42:37;;;;;;;8.40;7.70;;;26.50;99.90;;;;;;5056086;28;20444;-62
2021/07/08 11:45:09;;;;;;;10.47;9.67;;;26.40;99.90;;;;;;5056744;28;20797;-62
2021/07/08 11:47:40;;;;;;;9.40;8.70;;;26.70;99.90;;;;;;5056861;28;20468;-61
2021/07/08 11:50:28;;;;;;;9.20;8.60;;;26.60;99.90;;;;;;5057405;28;20441;-61
2021/07/08 11:53:14;;;;;;;9.37;8.77;;;27.00;99.90;;;;;;5058287;28;20425;-61
2021/07/08 11:55:47;;;;;;;10.50;9.80;;;27.60;99.90;;;;;;5061472;28;20491;-61
2021/07/08 11:58:22;;;;;;;9.90;9.00;;;26.70;99.90;;;;;;5061465;28;20445;-60
2021/07/08 12:00:56;;;;;;;9.80;9.00;;;26.80;99.90;;;;;;5061235;28;20451;-61
2021/07/08 12:03:40;;;;;;;9.07;8.43;;;27.20;99.90;;;;;;5049848;28;20506;-62
2021/07/08 12:06:08;;;;;;;8.67;7.97;;;27.50;99.90;;;;;;5061000;28;20434;-59
2021/07/08 12:08:40;;;;;;;8.60;8.07;;;28.20;99.90;;;;;;5060976;28;20465;-61
2021/07/08 12:11:21;;;;;;;8.70;8.20;;;28.70;99.70;;;;;;5092867;28;20475;-60
2021/07/08 12:13:49;;;;;;;9.80;8.93;;;28.20;99.90;;;;;;5101339;28;20484;-61
2021/07/08 12:16:19;;;;;;;9.53;8.83;;;27.50;99.90;;;;;;5100993;28;20498;-61
2021/07/08 12:18:49;;;;;;;8.90;8.30;;;27.40;99.90;;;;;;5101030;28;20451;-61
2021/07/08 12:21:40;;;;;;;9.67;9.00;;;27.20;99.90;;;;;;5101048;28;20454;-59
2021/07/08 12:24:09;;;;;;;9.60;8.97;;;26.90;99.90;;;;;;5101012;28;20535;-59
2021/07/08 12:26:37;;;;;;;10.37;9.57;;;27.40;99.90;;;;;;5101909;28;20899;-60
2021/07/08 12:29:17;;;;;;;10.80;9.87;;;27.50;99.90;;;;;;5097535;28;20438;-60
2021/07/08 12:31:56;;;;;;;10.50;9.67;;;27.10;99.90;;;;;;5103768;28;20477;-61
2021/07/08 12:34:26;;;;;;;9.20;8.53;;;27.00;99.90;;;;;;5119851;28;20543;-60
2021/07/08 12:36:53;;;;;;;10.03;9.23;;;27.40;99.90;;;;;;5118609;28;20473;-60
2021/07/08 12:39:26;;;;;;;10.17;9.27;;;27.50;99.90;;;;;;5113616;28;20439;-60
2021/07/08 12:41:54;;;;;;;10.33;9.40;;;27.70;99.90;;;;;;5111101;28;20446;-62
2021/07/08 12:44:21;;;;;;;10.43;9.73;;;27.80;99.90;;;;;;5106651;28;20462;-62
2021/07/08 12:46:54;;;;;;;10.23;9.53;;;27.60;99.90;;;;;;5097963;28;20959;-62
2021/07/08 12:49:22;;;;;;;10.17;9.17;;;27.60;99.90;;;;;;5099082;28;20440;-61
2021/07/08 12:51:50;;;;;;;11.00;10.03;;;27.20;99.90;;;;;;5100988;28;20445;-61
2021/07/08 12:54:19;;;;;;;9.20;8.50;;;27.10;99.90;;;;;;5096652;28;20440;-60
2021/07/08 12:57:08;;;;;;;10.10;9.40;;;26.90;99.90;;;;;;5090891;28;20469;-60
2021/07/08 12:59:56;;;;;;;10.47;9.60;;;26.70;99.90;;;;;;5097135;28;20825;-61